createdAt,value
2017-09-23T00:00:05.151Z,68.74
2017-09-23T00:00:19.802Z,68.74
2017-09-23T00:00:32.909Z,68.93
2017-09-23T00:00:45.480Z,68.84
2017-09-23T00:00:58.548Z,68.74
2017-09-23T00:01:13.904Z,69.03
2017-09-23T00:01:27.926Z,69.51
2017-09-23T00:01:41.437Z,69.23
2017-09-23T00:01:55.070Z,69.51
2017-09-23T00:02:09.131Z,70
2017-09-23T00:02:23.467Z,69.71
2017-09-23T00:02:37.144Z,70.09
2017-09-23T00:02:51.619Z,70.86
2017-09-23T00:03:05.582Z,70.96
2017-09-23T00:03:19.780Z,71.15
2017-09-23T00:03:34.068Z,70.86
2017-09-23T00:03:47.481Z,71.25
2017-09-23T00:04:01.188Z,71.6
2017-09-23T00:04:14.862Z,71.41
2017-09-23T00:04:28.786Z,72.31
2017-09-23T00:04:42.542Z,72.12
2017-09-23T00:04:57.237Z,72.75
2017-09-23T00:05:11.728Z,72.47
2017-09-23T00:05:25.812Z,72.47
2017-09-23T00:05:39.717Z,72.56
2017-09-23T00:05:53.792Z,72.56
2017-09-23T00:06:07.440Z,72.85
2017-09-23T00:06:21.200Z,72.95
2017-09-23T00:06:34.152Z,72.95
2017-09-23T00:06:48.083Z,72.85
2017-09-23T00:07:02.398Z,72.85
2017-09-23T00:07:16.417Z,73.62
2017-09-23T00:07:30.498Z,73.33
2017-09-23T00:07:44.351Z,73.53
2017-09-23T00:07:57.841Z,73.24
2017-09-23T00:08:11.689Z,73.53
2017-09-23T00:08:25.989Z,73.53
2017-09-23T00:08:40.626Z,73.91
2017-09-23T00:08:53.801Z,74.01
2017-09-23T00:09:06.859Z,74.1
2017-09-23T00:09:21.171Z,74.01
2017-09-23T00:09:35.051Z,73.91
2017-09-23T00:09:48.888Z,73.91
2017-09-23T00:10:03.129Z,73.91
2017-09-23T00:10:16.623Z,73.82
2017-09-23T00:10:30.063Z,74.01
2017-09-23T00:10:44.394Z,74.1
2017-09-23T00:10:58.300Z,73.82
2017-09-23T00:11:11.322Z,74.1
2017-09-23T00:11:24.779Z,74.3
2017-09-23T00:11:39.250Z,74.2
2017-09-23T00:11:52.216Z,74.2
2017-09-23T00:12:05.728Z,74.1
2017-09-23T00:12:19.946Z,73.97
2017-09-23T00:12:33.935Z,74.07
2017-09-23T00:12:47.979Z,74.26
2017-09-23T00:13:01.672Z,74.26
2017-09-23T00:13:15.503Z,74.26
2017-09-23T00:13:29.239Z,74.26
2017-09-23T00:13:43.333Z,74.26
2017-09-23T00:13:56.788Z,74.07
2017-09-23T00:14:10.489Z,74.16
2017-09-23T00:14:23.989Z,74.26
2017-09-23T00:14:36.800Z,74.36
2017-09-23T00:14:51.075Z,74.26
2017-09-23T00:15:05.193Z,74.16
2017-09-23T00:15:18.672Z,74.36
2017-09-23T00:15:32.917Z,74.26
2017-09-23T00:15:47.575Z,74.07
2017-09-23T00:16:01.177Z,74.74
2017-09-23T00:16:14.734Z,74.74
2017-09-23T00:16:28.955Z,74.55
2017-09-23T00:16:42.582Z,74.65
2017-09-23T00:16:56.669Z,74.74
2017-09-23T00:17:10.897Z,74.55
2017-09-23T00:17:24.538Z,74.65
2017-09-23T00:17:37.415Z,74.93
2017-09-23T00:17:51.418Z,74.93
2017-09-23T00:18:04.336Z,75.51
2017-09-23T00:18:18.061Z,75.9
2017-09-23T00:18:32.570Z,76.18
2017-09-23T00:18:45.472Z,75.8
2017-09-23T00:18:59.612Z,75.13
2017-09-23T00:19:13.230Z,75.23
2017-09-23T00:19:27.592Z,74.93
2017-09-23T00:19:40.518Z,75.13
2017-09-23T00:19:53.748Z,75.03
2017-09-23T00:20:07.227Z,75.13
2017-09-23T00:20:20.525Z,75.23
2017-09-23T00:20:33.663Z,75.03
2017-09-23T00:20:46.545Z,74.84
2017-09-23T00:20:59.852Z,75.32
2017-09-23T00:21:14.122Z,75.51
2017-09-23T00:21:28.392Z,75.71
2017-09-23T00:21:42.411Z,76.09
2017-09-23T00:21:55.585Z,76.09
2017-09-23T00:22:09.450Z,77.34
2017-09-23T00:22:22.985Z,76.96
2017-09-23T00:22:36.183Z,76.92
2017-09-23T00:22:49.699Z,77.01
2017-09-23T00:23:03.392Z,76.76
2017-09-23T00:23:17.048Z,77.01
2017-09-23T00:23:31.290Z,76.96
2017-09-23T00:23:45.603Z,77.4
2017-09-23T00:23:59.457Z,77.69
2017-09-23T00:24:13.497Z,77.78
2017-09-23T00:24:27.818Z,77.59
2017-09-23T00:24:41.264Z,77.5
2017-09-23T00:24:55.505Z,78.08
2017-09-23T00:25:09.583Z,77.78
2017-09-23T00:25:23.665Z,77.59
2017-09-23T00:25:36.596Z,78.17
2017-09-23T00:25:50.855Z,77.69
2017-09-23T00:26:04.543Z,77.59
2017-09-23T00:26:19.276Z,77.4
2017-09-23T00:26:33.383Z,76.63
2017-09-23T00:26:46.693Z,76.92
2017-09-23T00:27:00.930Z,76.82
2017-09-23T00:27:14.435Z,77.01
2017-09-23T00:27:28.080Z,76.92
2017-09-23T00:27:42.580Z,77.01
2017-09-23T00:27:56.543Z,77.01
2017-09-23T00:28:10.089Z,77.01
2017-09-23T00:28:23.965Z,77.01
2017-09-23T00:28:37.981Z,77.01
2017-09-23T00:28:52.382Z,76.82
2017-09-23T00:29:04.936Z,76.92
2017-09-23T00:29:17.846Z,77.11
2017-09-23T00:29:31.507Z,76.92
2017-09-23T00:29:45.769Z,76.82
2017-09-23T00:29:59.853Z,77.11
2017-09-23T00:30:13.368Z,76.53
2017-09-23T00:30:27.669Z,76.34
2017-09-23T00:30:41.161Z,76.63
2017-09-23T00:30:54.695Z,76.73
2017-09-23T00:31:08.758Z,76.44
2017-09-23T00:31:22.622Z,76.44
2017-09-23T00:31:36.447Z,76.25
2017-09-23T00:31:49.989Z,76.25
2017-09-23T00:32:03.485Z,76.15
2017-09-23T00:32:16.450Z,76.34
2017-09-23T00:32:30.942Z,76.92
2017-09-23T00:32:44.163Z,76.82
2017-09-23T00:32:58.214Z,77.31
2017-09-23T00:33:12.435Z,77.31
2017-09-23T00:33:26.548Z,77.21
2017-09-23T00:33:40.010Z,77.11
2017-09-23T00:33:52.940Z,77.01
2017-09-23T00:34:06.289Z,77.21
2017-09-23T00:34:20.010Z,76.92
2017-09-23T00:34:34.231Z,77.11
2017-09-23T00:34:47.172Z,77.21
2017-09-23T00:35:01.312Z,77.31
2017-09-23T00:35:15.563Z,77.01
2017-09-23T00:35:29.085Z,77.01
2017-09-23T00:35:42.511Z,77.31
2017-09-23T00:35:56.597Z,77.31
2017-09-23T00:36:10.486Z,77.21
2017-09-23T00:36:23.421Z,77.21
2017-09-23T00:36:36.383Z,77.31
2017-09-23T00:36:50.751Z,77.01
2017-09-23T00:37:04.870Z,77.11
2017-09-23T00:37:18.596Z,77.31
2017-09-23T00:37:32.882Z,77.31
2017-09-23T00:37:47.152Z,77.65
2017-09-23T00:38:01.222Z,77.69
2017-09-23T00:38:14.899Z,77.65
2017-09-23T00:38:29.055Z,77.4
2017-09-23T00:38:41.888Z,77.11
2017-09-23T00:38:54.793Z,77.21
2017-09-23T00:39:08.792Z,77.17
2017-09-23T00:39:22.855Z,76.88
2017-09-23T00:39:36.924Z,76.92
2017-09-23T00:39:50.640Z,77.01
2017-09-23T00:40:04.077Z,76.92
2017-09-23T00:40:17.190Z,76.78
2017-09-23T00:40:31.439Z,77.01
2017-09-23T00:40:44.995Z,77.01
2017-09-23T00:40:58.415Z,76.06
2017-09-23T00:41:12.470Z,76.44
2017-09-23T00:41:27.044Z,76.01
2017-09-23T00:41:40.727Z,75.57
2017-09-23T00:41:55.067Z,75.76
2017-09-23T00:42:08.028Z,75.19
2017-09-23T00:42:21.558Z,75.09
2017-09-23T00:42:35.661Z,74.9
2017-09-23T00:42:49.408Z,74.61
2017-09-23T00:43:02.398Z,74.51
2017-09-23T00:43:16.531Z,74.22
2017-09-23T00:43:30.033Z,73.94
2017-09-23T00:43:43.973Z,73.84
2017-09-23T00:43:57.799Z,73.74
2017-09-23T00:44:12.406Z,73.55
2017-09-23T00:44:26.184Z,73.26
2017-09-23T00:44:40.206Z,73.46
2017-09-23T00:44:54.359Z,73.26
2017-09-23T00:45:07.974Z,73.36
2017-09-23T00:45:22.122Z,73.55
2017-09-23T00:45:35.923Z,73.26
2017-09-23T00:45:49.669Z,73.74
2017-09-23T00:46:03.341Z,73.88
2017-09-23T00:46:17.874Z,73.65
2017-09-23T00:46:32.345Z,74.32
2017-09-23T00:46:46.503Z,74.41
2017-09-23T00:47:00.637Z,74.22
2017-09-23T00:47:14.580Z,74.07
2017-09-23T00:47:28.335Z,74.41
2017-09-23T00:47:42.288Z,74.55
2017-09-23T00:47:55.734Z,74.45
2017-09-23T00:48:09.201Z,75.23
2017-09-23T00:48:22.706Z,74.9
2017-09-23T00:48:37.238Z,75.19
2017-09-23T00:48:51.286Z,75.19
2017-09-23T00:49:05.738Z,74.99
2017-09-23T00:49:19.763Z,74.61
2017-09-23T00:49:33.915Z,75.03
2017-09-23T00:49:46.444Z,74.41
2017-09-23T00:50:00.584Z,74.22
2017-09-23T00:50:13.637Z,74.32
2017-09-23T00:50:27.729Z,74.03
2017-09-23T00:50:40.633Z,73.74
2017-09-23T00:50:54.136Z,74.22
2017-09-23T00:51:08.058Z,73.84
2017-09-23T00:51:22.548Z,73.74
2017-09-23T00:51:36.833Z,73.65
2017-09-23T00:51:51.340Z,73.65
2017-09-23T00:52:05.059Z,73.36
2017-09-23T00:52:18.967Z,73.3
2017-09-23T00:52:33.392Z,73.16
2017-09-23T00:52:46.340Z,73.1
2017-09-23T00:53:00.061Z,73.2
2017-09-23T00:53:13.527Z,72.81
2017-09-23T00:53:27.022Z,72.81
2017-09-23T00:53:40.810Z,72.24
2017-09-23T00:53:54.324Z,72.63
2017-09-23T00:54:07.644Z,72.33
2017-09-23T00:54:21.952Z,72.43
2017-09-23T00:54:35.468Z,71.95
2017-09-23T00:54:49.124Z,72.05
2017-09-23T00:55:03.501Z,71.95
2017-09-23T00:55:16.974Z,71.66
2017-09-23T00:55:30.021Z,71.56
2017-09-23T00:55:43.703Z,71.47
2017-09-23T00:55:57.964Z,70.98
2017-09-23T00:56:11.930Z,71.08
2017-09-23T00:56:25.586Z,70.79
2017-09-23T00:56:40.188Z,71.18
2017-09-23T00:56:53.866Z,71.08
2017-09-23T00:57:08.393Z,70.89
2017-09-23T00:57:23.047Z,71.18
2017-09-23T00:57:37.262Z,70.6
2017-09-23T00:57:51.519Z,70.7
2017-09-23T00:58:04.989Z,70.7
2017-09-23T00:58:19.410Z,70.6
2017-09-23T00:58:33.221Z,70.98
2017-09-23T00:58:46.789Z,70.98
2017-09-23T00:59:00.905Z,70.7
2017-09-23T00:59:14.662Z,70.64
2017-09-23T00:59:29.192Z,70.73
2017-09-23T00:59:42.349Z,70.7
2017-09-23T00:59:55.926Z,71.08
2017-09-23T01:00:10.356Z,71.37
2017-09-23T01:00:23.907Z,71.28
2017-09-23T01:00:38.067Z,70.98
2017-09-23T01:00:51.824Z,70.98
2017-09-23T01:01:05.011Z,71.08
2017-09-23T01:01:20.002Z,71.28
2017-09-23T01:01:34.553Z,70.7
2017-09-23T01:01:48.361Z,70.79
2017-09-23T01:02:02.681Z,70.89
2017-09-23T01:02:16.431Z,70.7
2017-09-23T01:02:30.457Z,70.6
2017-09-23T01:02:44.107Z,71.18
2017-09-23T01:02:58.182Z,71.18
2017-09-23T01:03:11.880Z,70.98
2017-09-23T01:03:25.513Z,71.08
2017-09-23T01:03:39.768Z,70.79
2017-09-23T01:03:54.288Z,70.89
2017-09-23T01:04:07.252Z,70.98
2017-09-23T01:04:20.990Z,71.08
2017-09-23T01:04:34.755Z,71.28
2017-09-23T01:04:48.833Z,71.37
2017-09-23T01:05:03.358Z,71.37
2017-09-23T01:05:17.417Z,71.18
2017-09-23T01:05:30.966Z,71.18
2017-09-23T01:05:45.535Z,71.08
2017-09-23T01:05:58.664Z,70.79
2017-09-23T01:06:12.190Z,70.89
2017-09-23T01:06:25.786Z,70.89
2017-09-23T01:06:39.854Z,70.79
2017-09-23T01:06:52.785Z,70.98
2017-09-23T01:07:06.873Z,71.08
2017-09-23T01:07:20.247Z,71.18
2017-09-23T01:07:33.743Z,71.18
2017-09-23T01:07:47.266Z,70.98
2017-09-23T01:08:00.214Z,71.08
2017-09-23T01:08:14.543Z,70.89
2017-09-23T01:08:28.824Z,70.5
2017-09-23T01:08:43.101Z,70.5
2017-09-23T01:08:57.205Z,70.98
2017-09-23T01:09:10.273Z,70.5
2017-09-23T01:09:24.399Z,70.79
2017-09-23T01:09:38.855Z,70.7
2017-09-23T01:09:52.350Z,70.7
2017-09-23T01:10:05.781Z,71.18
2017-09-23T01:10:19.329Z,70.6
2017-09-23T01:10:32.863Z,71.37
2017-09-23T01:10:46.589Z,71.08
2017-09-23T01:11:00.659Z,71.18
2017-09-23T01:11:13.518Z,70.6
2017-09-23T01:11:26.424Z,70.89
2017-09-23T01:11:40.939Z,70.89
2017-09-23T01:11:55.020Z,70.79
2017-09-23T01:12:09.283Z,70.7
2017-09-23T01:12:22.810Z,70.7
2017-09-23T01:12:35.954Z,70.79
2017-09-23T01:12:49.408Z,70.89
2017-09-23T01:13:03.419Z,70.6
2017-09-23T01:13:17.707Z,70.79
2017-09-23T01:13:31.561Z,70.6
2017-09-23T01:13:45.610Z,70.7
2017-09-23T01:13:59.609Z,70.6
2017-09-23T01:14:13.051Z,70.79
2017-09-23T01:14:26.512Z,70.6
2017-09-23T01:14:40.750Z,70.7
2017-09-23T01:14:54.534Z,70.89
2017-09-23T01:15:08.853Z,71.08
2017-09-23T01:15:22.916Z,71.28
2017-09-23T01:15:36.455Z,71.18
2017-09-23T01:15:49.960Z,71.08
2017-09-23T01:16:04.456Z,71.18
2017-09-23T01:16:17.371Z,70.98
2017-09-23T01:16:31.058Z,71.18
2017-09-23T01:16:45.456Z,70.5
2017-09-23T01:16:59.433Z,71.18
2017-09-23T01:17:13.478Z,70.7
2017-09-23T01:17:28.803Z,71.08
2017-09-23T01:17:42.506Z,71.18
2017-09-23T01:17:56.846Z,71.28
2017-09-23T01:18:10.553Z,70.89
2017-09-23T01:18:24.703Z,71.18
2017-09-23T01:18:38.775Z,70.98
2017-09-23T01:18:52.308Z,71.56
2017-09-23T01:19:05.951Z,71.95
2017-09-23T01:19:20.055Z,71.76
2017-09-23T01:19:33.510Z,71.95
2017-09-23T01:19:47.568Z,72.53
2017-09-23T01:20:01.064Z,72.33
2017-09-23T01:20:14.513Z,72.53
2017-09-23T01:20:28.335Z,72.63
2017-09-23T01:20:41.857Z,72.05
2017-09-23T01:20:55.852Z,72.53
2017-09-23T01:21:10.083Z,72.53
2017-09-23T01:21:23.010Z,72.63
2017-09-23T01:21:36.556Z,73.1
2017-09-23T01:21:50.455Z,72.97
2017-09-23T01:22:03.967Z,72.97
2017-09-23T01:22:16.814Z,73.36
2017-09-23T01:22:30.471Z,73.3
2017-09-23T01:22:44.436Z,73.55
2017-09-23T01:22:58.206Z,73.74
2017-09-23T01:23:12.221Z,73.84
2017-09-23T01:23:25.722Z,74.32
2017-09-23T01:23:39.232Z,74.22
2017-09-23T01:23:52.370Z,74.03
2017-09-23T01:24:05.827Z,74.32
2017-09-23T01:24:19.831Z,74.13
2017-09-23T01:24:33.393Z,73.74
2017-09-23T01:24:46.833Z,74.03
2017-09-23T01:25:00.866Z,74.13
2017-09-23T01:25:14.957Z,74.03
2017-09-23T01:25:28.436Z,73.94
2017-09-23T01:25:41.852Z,74.22
2017-09-23T01:25:55.968Z,74.03
2017-09-23T01:26:10.379Z,74.41
2017-09-23T01:26:23.848Z,74.61
2017-09-23T01:26:38.064Z,74.51
2017-09-23T01:26:52.266Z,74.61
2017-09-23T01:27:05.201Z,74.8
2017-09-23T01:27:18.117Z,74.61
2017-09-23T01:27:30.976Z,74.51
2017-09-23T01:27:44.364Z,74.41
2017-09-23T01:27:57.910Z,74.71
2017-09-23T01:28:10.790Z,74.99
2017-09-23T01:28:24.858Z,75.19
2017-09-23T01:28:37.758Z,75.19
2017-09-23T01:28:52.001Z,75.19
2017-09-23T01:29:06.205Z,75.19
2017-09-23T01:29:20.180Z,75.15
2017-09-23T01:29:33.665Z,74.9
2017-09-23T01:29:47.758Z,74.99
2017-09-23T01:30:02.010Z,75.05
2017-09-23T01:30:15.433Z,75.15
2017-09-23T01:30:28.565Z,74.96
2017-09-23T01:30:42.010Z,75.54
2017-09-23T01:30:56.077Z,75.73
2017-09-23T01:31:09.594Z,75.73
2017-09-23T01:31:23.814Z,75.86
2017-09-23T01:31:37.862Z,75.15
2017-09-23T01:31:51.734Z,74.96
2017-09-23T01:32:05.817Z,74.96
2017-09-23T01:32:19.433Z,75.15
2017-09-23T01:32:33.664Z,75.15
2017-09-23T01:32:47.920Z,75.15
2017-09-23T01:33:02.236Z,75.05
2017-09-23T01:33:16.313Z,75.44
2017-09-23T01:33:30.404Z,75.15
2017-09-23T01:33:44.109Z,75.05
2017-09-23T01:33:57.569Z,74.86
2017-09-23T01:34:11.371Z,75.24
2017-09-23T01:34:26.032Z,75.15
2017-09-23T01:34:40.375Z,74.57
2017-09-23T01:34:54.002Z,74.67
2017-09-23T01:35:07.612Z,74.48
2017-09-23T01:35:21.828Z,74.48
2017-09-23T01:35:35.404Z,75.15
2017-09-23T01:35:48.885Z,74.86
2017-09-23T01:36:03.148Z,75.34
2017-09-23T01:36:16.837Z,74.96
2017-09-23T01:36:29.929Z,74.96
2017-09-23T01:36:42.898Z,75.54
2017-09-23T01:36:56.583Z,75.54
2017-09-23T01:37:11.070Z,75.44
2017-09-23T01:37:25.388Z,75.44
2017-09-23T01:37:38.897Z,75.73
2017-09-23T01:37:52.462Z,75.82
2017-09-23T01:38:06.111Z,75.82
2017-09-23T01:38:20.130Z,75.82
2017-09-23T01:38:34.750Z,75.82
2017-09-23T01:38:49.134Z,75.82
2017-09-23T01:39:02.832Z,75.54
2017-09-23T01:39:16.334Z,75.44
2017-09-23T01:39:30.383Z,75.63
2017-09-23T01:39:43.971Z,75.54
2017-09-23T01:39:57.789Z,75.44
2017-09-23T01:40:11.295Z,75.44
2017-09-23T01:40:25.409Z,75.63
2017-09-23T01:40:39.033Z,75.44
2017-09-23T01:40:53.203Z,75.54
2017-09-23T01:41:07.716Z,75.44
2017-09-23T01:41:21.505Z,75.54
2017-09-23T01:41:34.490Z,75.54
2017-09-23T01:41:48.381Z,75.54
2017-09-23T01:42:02.157Z,75.44
2017-09-23T01:42:16.052Z,75.63
2017-09-23T01:42:30.168Z,75.34
2017-09-23T01:42:43.726Z,74.86
2017-09-23T01:42:56.633Z,75.34
2017-09-23T01:43:10.727Z,75.15
2017-09-23T01:43:24.169Z,74.57
2017-09-23T01:43:38.154Z,74.67
2017-09-23T01:43:52.165Z,74.67
2017-09-23T01:44:05.869Z,74.57
2017-09-23T01:44:19.513Z,74.48
2017-09-23T01:44:33.013Z,74.48
2017-09-23T01:44:47.504Z,74.38
2017-09-23T01:45:01.009Z,74.67
2017-09-23T01:45:13.896Z,74.67
2017-09-23T01:45:27.392Z,74.48
2017-09-23T01:45:41.760Z,74.67
2017-09-23T01:45:55.833Z,74.57
2017-09-23T01:46:09.853Z,74.57
2017-09-23T01:46:25.641Z,74.67
2017-09-23T01:46:39.694Z,74.76
2017-09-23T01:46:53.012Z,74.57
2017-09-23T01:47:07.152Z,74.29
2017-09-23T01:47:20.918Z,74.09
2017-09-23T01:47:33.846Z,73.9
2017-09-23T01:47:47.296Z,74.09
2017-09-23T01:48:00.779Z,74.29
2017-09-23T01:48:14.391Z,73.8
2017-09-23T01:48:27.872Z,73.71
2017-09-23T01:48:42.021Z,73.8
2017-09-23T01:48:56.060Z,73.71
2017-09-23T01:49:09.815Z,73.71
2017-09-23T01:49:24.289Z,73.71
2017-09-23T01:49:37.864Z,73.8
2017-09-23T01:49:51.565Z,73.42
2017-09-23T01:50:03.935Z,73.32
2017-09-23T01:50:17.412Z,73.13
2017-09-23T01:50:31.659Z,73.32
2017-09-23T01:50:44.619Z,73.42
2017-09-23T01:50:58.733Z,73.32
2017-09-23T01:51:12.384Z,73.51
2017-09-23T01:51:26.470Z,73.32
2017-09-23T01:51:39.560Z,73.65
2017-09-23T01:51:53.647Z,73.42
2017-09-23T01:52:06.555Z,73.22
2017-09-23T01:52:20.599Z,73.22
2017-09-23T01:52:34.862Z,73.36
2017-09-23T01:52:48.886Z,73.42
2017-09-23T01:53:03.012Z,73.22
2017-09-23T01:53:15.357Z,73.42
2017-09-23T01:53:28.779Z,72.78
2017-09-23T01:53:42.444Z,72.78
2017-09-23T01:53:56.617Z,72.94
2017-09-23T01:54:10.304Z,73.07
2017-09-23T01:54:23.737Z,72.39
2017-09-23T01:54:36.648Z,72.55
2017-09-23T01:54:49.560Z,72.59
2017-09-23T01:55:02.745Z,72.68
2017-09-23T01:55:16.259Z,72.65
2017-09-23T01:55:30.905Z,72.49
2017-09-23T01:55:45.044Z,72.49
2017-09-23T01:55:58.731Z,72.59
2017-09-23T01:56:11.855Z,72.2
2017-09-23T01:56:26.110Z,72.01
2017-09-23T01:56:40.285Z,72.2
2017-09-23T01:56:54.334Z,72.2
2017-09-23T01:57:08.471Z,72.2
2017-09-23T01:57:21.995Z,72.11
2017-09-23T01:57:36.107Z,71.81
2017-09-23T01:57:49.652Z,72.49
2017-09-23T01:58:03.912Z,72.3
2017-09-23T01:58:18.440Z,72.39
2017-09-23T01:58:32.467Z,72.59
2017-09-23T01:58:45.666Z,72.49
2017-09-23T01:59:00.187Z,72.49
2017-09-23T01:59:13.692Z,72.49
2017-09-23T01:59:27.455Z,72.59
2017-09-23T01:59:40.381Z,72.59
2017-09-23T01:59:53.327Z,72.39
2017-09-23T02:00:06.980Z,72.68
2017-09-23T02:00:21.128Z,72.39
2017-09-23T02:00:34.701Z,72.3
2017-09-23T02:00:48.416Z,72.49
2017-09-23T02:01:02.835Z,72.49
2017-09-23T02:01:16.434Z,72.49
2017-09-23T02:01:30.022Z,72.68
2017-09-23T02:01:44.276Z,72.36
2017-09-23T02:01:58.487Z,72.68
2017-09-23T02:02:12.715Z,72.49
2017-09-23T02:02:27.112Z,72.78
2017-09-23T02:02:40.636Z,72.68
2017-09-23T02:02:54.580Z,72.39
2017-09-23T02:03:08.683Z,72.3
2017-09-23T02:03:22.239Z,72.39
2017-09-23T02:03:35.971Z,72.78
2017-09-23T02:03:49.665Z,72.97
2017-09-23T02:04:03.735Z,72.97
2017-09-23T02:04:17.429Z,72.97
2017-09-23T02:04:31.173Z,72.65
2017-09-23T02:04:45.283Z,73.03
2017-09-23T02:04:58.785Z,73.26
2017-09-23T02:05:12.990Z,72.3
2017-09-23T02:05:25.868Z,72.39
2017-09-23T02:05:39.308Z,72.59
2017-09-23T02:05:53.382Z,72.59
2017-09-23T02:06:06.289Z,72.49
2017-09-23T02:06:19.958Z,72.39
2017-09-23T02:06:33.960Z,72.49
2017-09-23T02:06:47.502Z,72.3
2017-09-23T02:07:01.709Z,72.3
2017-09-23T02:07:15.991Z,72.49
2017-09-23T02:07:29.446Z,72.94
2017-09-23T02:07:45.412Z,72.68
2017-09-23T02:07:58.283Z,72.97
2017-09-23T02:08:12.341Z,73.07
2017-09-23T02:08:25.809Z,73.46
2017-09-23T02:08:38.730Z,73.84
2017-09-23T02:08:51.582Z,74.19
2017-09-23T02:09:06.123Z,73.8
2017-09-23T02:09:19.662Z,73.61
2017-09-23T02:09:33.406Z,73.8
2017-09-23T02:09:46.850Z,73.42
2017-09-23T02:10:00.858Z,73.32
2017-09-23T02:10:14.544Z,73.03
2017-09-23T02:10:28.779Z,73.13
2017-09-23T02:10:42.218Z,73.22
2017-09-23T02:10:55.827Z,72.84
2017-09-23T02:11:08.886Z,72.84
2017-09-23T02:11:21.766Z,72.74
2017-09-23T02:11:35.888Z,73.03
2017-09-23T02:11:50.553Z,73.51
2017-09-23T02:12:04.075Z,73.61
2017-09-23T02:12:18.060Z,73.22
2017-09-23T02:12:31.214Z,73.03
2017-09-23T02:12:45.295Z,73.32
2017-09-23T02:12:58.960Z,73.42
2017-09-23T02:13:12.450Z,73.22
2017-09-23T02:13:26.521Z,73.32
2017-09-23T02:13:40.043Z,73.32
2017-09-23T02:13:54.150Z,73.42
2017-09-23T02:14:08.136Z,73.22
2017-09-23T02:14:21.717Z,73.42
2017-09-23T02:14:35.782Z,73.42
2017-09-23T02:14:49.831Z,73.22
2017-09-23T02:15:02.867Z,73.03
2017-09-23T02:15:16.444Z,73.51
2017-09-23T02:15:29.859Z,73.61
2017-09-23T02:15:43.860Z,73.61
2017-09-23T02:15:57.843Z,73.22
2017-09-23T02:16:11.297Z,73.13
2017-09-23T02:16:23.596Z,73.71
2017-09-23T02:16:37.580Z,73.8
2017-09-23T02:16:51.556Z,73.99
2017-09-23T02:17:04.984Z,73.71
2017-09-23T02:17:18.499Z,73.61
2017-09-23T02:17:32.543Z,73.32
2017-09-23T02:17:45.366Z,73.32
2017-09-23T02:17:59.332Z,73.42
2017-09-23T02:18:12.979Z,73.42
2017-09-23T02:18:27.171Z,73.32
2017-09-23T02:18:41.163Z,73.51
2017-09-23T02:18:53.994Z,73.32
2017-09-23T02:19:07.425Z,73.13
2017-09-23T02:19:21.468Z,73.13
2017-09-23T02:19:35.474Z,73.13
2017-09-23T02:19:48.991Z,73.22
2017-09-23T02:20:01.656Z,73.22
2017-09-23T02:20:14.548Z,73.32
2017-09-23T02:20:28.624Z,73.22
2017-09-23T02:20:42.769Z,73.13
2017-09-23T02:20:56.181Z,73.03
2017-09-23T02:21:09.275Z,73.22
2017-09-23T02:21:22.683Z,73.03
2017-09-23T02:21:37.328Z,73.32
2017-09-23T02:21:51.242Z,73.32
2017-09-23T02:22:04.725Z,73.22
2017-09-23T02:22:18.169Z,73.32
2017-09-23T02:22:32.280Z,73.71
2017-09-23T02:22:45.718Z,73.42
2017-09-23T02:22:58.529Z,74.19
2017-09-23T02:23:11.351Z,73.71
2017-09-23T02:23:24.846Z,74.29
2017-09-23T02:23:37.744Z,74.09
2017-09-23T02:23:50.648Z,74.48
2017-09-23T02:24:04.113Z,74.57
2017-09-23T02:24:17.535Z,74.48
2017-09-23T02:24:30.396Z,74.48
2017-09-23T02:24:42.145Z,74.48
2017-09-23T02:24:54.974Z,74.67
2017-09-23T02:25:07.873Z,74.76
2017-09-23T02:25:21.921Z,74.67
2017-09-23T02:25:35.995Z,74.67
2017-09-23T02:25:49.922Z,74.48
2017-09-23T02:26:03.353Z,74.48
2017-09-23T02:26:16.697Z,74.48
2017-09-23T02:26:30.104Z,74.48
2017-09-23T02:26:44.089Z,74.48
2017-09-23T02:26:58.058Z,74.48
2017-09-23T02:27:11.538Z,74.96
2017-09-23T02:27:25.490Z,74.86
2017-09-23T02:27:38.937Z,74.86
2017-09-23T02:27:51.737Z,74.96
2017-09-23T02:28:05.768Z,75.15
2017-09-23T02:28:19.784Z,75.05
2017-09-23T02:28:33.181Z,74.76
2017-09-23T02:28:46.034Z,75.05
2017-09-23T02:29:00.108Z,75.15
2017-09-23T02:29:12.975Z,74.48
2017-09-23T02:29:26.609Z,74.38
2017-09-23T02:29:40.541Z,74.57
2017-09-23T02:29:53.968Z,74.86
2017-09-23T02:30:07.910Z,75.15
2017-09-23T02:30:21.244Z,74.57
2017-09-23T02:30:34.514Z,74.86
2017-09-23T02:30:48.519Z,74.57
2017-09-23T02:31:01.990Z,74.57
2017-09-23T02:31:15.972Z,74.48
2017-09-23T02:31:29.947Z,74.48
2017-09-23T02:31:43.863Z,74.38
2017-09-23T02:31:57.592Z,74.57
2017-09-23T02:32:11.469Z,74.48
2017-09-23T02:32:25.514Z,74.48
2017-09-23T02:32:38.297Z,74.67
2017-09-23T02:32:52.251Z,74.86
2017-09-23T02:33:06.182Z,75.05
2017-09-23T02:33:19.568Z,75.15
2017-09-23T02:33:33.513Z,75.15
2017-09-23T02:33:47.423Z,74.96
2017-09-23T02:34:01.438Z,74.96
2017-09-23T02:34:15.399Z,75.02
2017-09-23T02:34:28.748Z,75.02
2017-09-23T02:34:42.718Z,74.96
2017-09-23T02:34:56.077Z,74.96
2017-09-23T02:35:09.425Z,74.96
2017-09-23T02:35:23.370Z,75.05
2017-09-23T02:35:36.714Z,74.76
2017-09-23T02:35:49.551Z,74.86
2017-09-23T02:36:01.808Z,74.96
2017-09-23T02:36:15.763Z,75.4
2017-09-23T02:36:29.109Z,75.54
2017-09-23T02:36:43.116Z,75.54
2017-09-23T02:36:55.875Z,75.4
2017-09-23T02:37:09.801Z,75.69
2017-09-23T02:37:23.697Z,75.59
2017-09-23T02:37:37.668Z,75.4
2017-09-23T02:37:50.350Z,75.4
2017-09-23T02:38:04.269Z,75.4
2017-09-23T02:38:17.633Z,75.4
2017-09-23T02:38:31.235Z,75.4
2017-09-23T02:38:44.659Z,75.49
2017-09-23T02:38:57.428Z,75.4
2017-09-23T02:39:11.556Z,75.49
2017-09-23T02:39:25.018Z,75.59
2017-09-23T02:39:38.415Z,75.79
2017-09-23T02:39:52.385Z,75.69
2017-09-23T02:40:05.797Z,75.49
2017-09-23T02:40:19.208Z,76.07
2017-09-23T02:40:32.920Z,75.88
2017-09-23T02:40:46.789Z,76.07
2017-09-23T02:41:01.412Z,76.26
2017-09-23T02:41:15.395Z,76.07
2017-09-23T02:41:28.810Z,76.07
2017-09-23T02:41:42.709Z,76.46
2017-09-23T02:41:56.053Z,76.46
2017-09-23T02:42:08.919Z,76.46
2017-09-23T02:42:22.698Z,76.36
2017-09-23T02:42:35.996Z,76.36
2017-09-23T02:42:50.003Z,76.65
2017-09-23T02:43:02.948Z,76.26
2017-09-23T02:43:15.893Z,76.36
2017-09-23T02:43:29.259Z,76.36
2017-09-23T02:43:42.020Z,76.26
2017-09-23T02:43:55.918Z,76.36
2017-09-23T02:44:09.898Z,76.36
2017-09-23T02:44:23.075Z,76.94
2017-09-23T02:44:35.945Z,76.75
2017-09-23T02:44:48.789Z,76.75
2017-09-23T02:45:02.044Z,77.04
2017-09-23T02:45:14.873Z,77.04
2017-09-23T02:45:28.517Z,76.75
2017-09-23T02:45:41.973Z,77.23
2017-09-23T02:45:55.269Z,76.84
2017-09-23T02:46:08.693Z,76.84
2017-09-23T02:46:21.975Z,76.65
2017-09-23T02:46:34.742Z,76.56
2017-09-23T02:46:48.740Z,77.13
2017-09-23T02:47:01.425Z,76.94
2017-09-23T02:47:15.654Z,77.29
2017-09-23T02:47:28.980Z,77.19
2017-09-23T02:47:41.663Z,77.13
2017-09-23T02:47:55.746Z,77.29
2017-09-23T02:48:09.086Z,77
2017-09-23T02:48:22.999Z,76.84
2017-09-23T02:48:36.256Z,76.81
2017-09-23T02:48:50.152Z,76.75
2017-09-23T02:49:04.196Z,76.71
2017-09-23T02:49:17.555Z,76.84
2017-09-23T02:49:31.428Z,76.71
2017-09-23T02:49:44.500Z,76.94
2017-09-23T02:49:57.661Z,77.09
2017-09-23T02:50:10.177Z,76.81
2017-09-23T02:50:24.056Z,76.9
2017-09-23T02:50:37.749Z,76.81
2017-09-23T02:50:51.421Z,76.81
2017-09-23T02:51:04.068Z,76.81
2017-09-23T02:51:17.810Z,76.81
2017-09-23T02:51:31.422Z,77.19
2017-09-23T02:51:45.043Z,76.81
2017-09-23T02:51:58.914Z,76.81
2017-09-23T02:52:12.603Z,76.71
2017-09-23T02:52:26.436Z,77
2017-09-23T02:52:39.553Z,77.09
2017-09-23T02:52:52.579Z,76.81
2017-09-23T02:53:05.623Z,76.84
2017-09-23T02:53:19.195Z,76.81
2017-09-23T02:53:32.271Z,76.52
2017-09-23T02:53:44.898Z,75.98
2017-09-23T02:53:58.413Z,76.23
2017-09-23T02:54:11.056Z,76.94
2017-09-23T02:54:24.699Z,76.94
2017-09-23T02:54:38.487Z,77.04
2017-09-23T02:54:52.069Z,76.94
2017-09-23T02:55:05.620Z,76.26
2017-09-23T02:55:19.417Z,76.56
2017-09-23T02:55:31.929Z,76.17
2017-09-23T02:55:45.488Z,76.26
2017-09-23T02:55:59.123Z,76.07
2017-09-23T02:56:11.750Z,75.69
2017-09-23T02:56:24.913Z,75.98
2017-09-23T02:56:38.562Z,76.46
2017-09-23T02:56:51.681Z,76.36
2017-09-23T02:57:04.799Z,76.07
2017-09-23T02:57:17.624Z,76.26